Chennai, India
Current Conditions -  °F | °C
As of 2:40 AM on Thursday 23 Oct 2014 (Local Time) from VOMM Reporting Station
Haze Haze  
Wind Chill: 79°   Ceiling: Unl
Heat Index: 83°   Visibility: 1.5mi
Dew Point: 77°   Wind: 0mph
Humidity: 94%   Direction: NA
Pressure: 29.83"   Gusts: NA
Location:  13.06°N, 80.25°E
Report Text: VOMM 222140Z 00000KT 2500 BR FEW018 SCT025 26/25 Q1010 NOSIG
Loading
Personal Weather Stations






























Interactive Weather Map
Tropical Storm Tracking
New forecast layout! Learn more

10-Day Weather Forecast

Advertisements
Track Severe Weather on mobile